createdAt,value
2022-12-25T00:00:31.360Z,97890.88
2022-12-25T00:02:59.742Z,97897.16
2022-12-25T00:05:28.413Z,97894.50
2022-12-25T00:07:56.677Z,97894.50
2022-12-25T00:10:25.298Z,97896.31
2022-12-25T00:12:53.595Z,97884.03
2022-12-25T00:15:23.272Z,97888.63
2022-12-25T00:17:51.536Z,97889.63
2022-12-25T00:20:19.981Z,97896.72
2022-12-25T00:22:48.247Z,97901.31
2022-12-25T00:25:16.542Z,97902.31
2022-12-25T00:27:44.796Z,97897.84
2022-12-25T00:30:13.833Z,97900.63
2022-12-25T00:32:43.399Z,97910.38
2022-12-25T00:35:11.810Z,97906.91
2022-12-25T00:37:40.068Z,97907.75
2022-12-25T00:40:10.274Z,97914.03
2022-12-25T00:42:38.501Z,97916.69
2022-12-25T00:45:07.899Z,97912.34
2022-12-25T00:47:36.168Z,97911.38
2022-12-25T00:50:07.691Z,97912.34
2022-12-25T00:52:36.017Z,97914.84
2022-12-25T00:55:04.334Z,97906.22
2022-12-25T00:57:33.083Z,97913.19
2022-12-25T01:00:01.372Z,97911.50
2022-12-25T01:02:29.802Z,97909.16
2022-12-25T01:04:58.847Z,97900.63
2022-12-25T01:07:28.838Z,97896.59
2022-12-25T01:10:14.755Z,97904.34
2022-12-25T01:12:44.717Z,97909.25
2022-12-25T01:15:14.132Z,97918.28
2022-12-25T01:17:43.124Z,97918.41
2022-12-25T01:20:13.510Z,97921.06
2022-12-25T01:22:43.352Z,97911.44
2022-12-25T01:25:12.894Z,97899.88
2022-12-25T01:27:42.761Z,97896.28
2022-12-25T01:30:12.606Z,97903.38
2022-12-25T01:32:40.860Z,97905.16
2022-12-25T01:35:09.901Z,97908.94
2022-12-25T01:37:38.194Z,97904.63
2022-12-25T01:40:10.220Z,97909.34
2022-12-25T01:42:38.729Z,97915.63
2022-12-25T01:45:43.516Z,97913.53
2022-12-25T01:48:17.952Z,97907.78
2022-12-25T01:50:51.851Z,97914.88
2022-12-25T01:53:20.222Z,97917.00
2022-12-25T01:55:55.581Z,97908.34
2022-12-25T01:58:24.375Z,97913.75
2022-12-25T02:00:53.285Z,97904.16
2022-12-25T02:03:22.451Z,97908.59
2022-12-25T02:05:51.962Z,97906.94
2022-12-25T02:08:22.157Z,97907.06
2022-12-25T02:10:51.840Z,97908.06
2022-12-25T02:13:21.592Z,97912.50
2022-12-25T02:16:02.509Z,97907.34
2022-12-25T02:18:41.671Z,97909.16
2022-12-25T02:21:31.540Z,97903.97
2022-12-25T02:24:24.254Z,97905.09
2022-12-25T02:27:17.507Z,97903.56
2022-12-25T02:29:55.123Z,97911.66
2022-12-25T02:32:29.935Z,97913.31
2022-12-25T02:35:03.772Z,97915.97
2022-12-25T02:37:37.826Z,97905.38
2022-12-25T02:40:15.126Z,97911.78
2022-12-25T02:43:06.500Z,97902.00
2022-12-25T02:45:59.405Z,97911.06
2022-12-25T02:48:50.870Z,97903.13
2022-12-25T02:51:39.861Z,97891.00
2022-12-25T02:54:31.887Z,97897.97
2022-12-25T02:57:21.283Z,97896.31
2022-12-25T03:00:08.983Z,97906.31
2022-12-25T03:02:58.494Z,97910.75
2022-12-25T03:05:46.627Z,97907.28
2022-12-25T03:08:20.399Z,97914.38
2022-12-25T03:11:15.860Z,97911.03
2022-12-25T03:13:48.095Z,97918.97
2022-12-25T03:16:33.853Z,97924.13
2022-12-25T03:19:25.038Z,97924.13
2022-12-25T03:22:12.077Z,97921.59
2022-12-25T03:24:58.113Z,97923.31
2022-12-25T03:27:27.217Z,97915.50
2022-12-25T03:30:13.099Z,97904.91
2022-12-25T03:32:49.701Z,97905.06
2022-12-25T03:35:26.527Z,97909.50
2022-12-25T03:38:28.646Z,97908.78
2022-12-25T03:41:50.679Z,97907.25
2022-12-25T03:44:43.652Z,97893.44
2022-12-25T03:47:41.607Z,97880.34
2022-12-25T03:50:36.368Z,97881.47
2022-12-25T03:53:28.179Z,97873.78
2022-12-25T03:56:14.993Z,97868.63
2022-12-25T03:59:09.981Z,97862.78
2022-12-25T04:01:55.575Z,97870.00
2022-12-25T04:04:41.359Z,97861.63
2022-12-25T04:07:28.608Z,97858.84
2022-12-25T04:10:14.210Z,97863.31
2022-12-25T04:12:59.847Z,97858.84
2022-12-25T04:15:45.674Z,97871.25
2022-12-25T04:18:31.236Z,97869.56
2022-12-25T04:21:16.710Z,97867.75
2022-12-25T04:24:03.933Z,97862.75
2022-12-25T04:26:49.623Z,97862.75
2022-12-25T04:29:35.136Z,97869.81
2022-12-25T04:32:21.082Z,97870.81
2022-12-25T04:35:06.655Z,97864.66
2022-12-25T04:37:34.936Z,97855.06
2022-12-25T04:40:05.716Z,97859.50
2022-12-25T04:42:34.010Z,97848.94
2022-12-25T04:45:02.267Z,97847.00
2022-12-25T04:47:30.554Z,97834.75
2022-12-25T04:49:58.798Z,97841.97
2022-12-25T04:52:27.076Z,97830.69
2022-12-25T04:54:55.284Z,97850.19
2022-12-25T04:57:24.848Z,97857.13
2022-12-25T04:59:53.138Z,97870.34
2022-12-25T05:02:21.579Z,97862.44
2022-12-25T05:04:49.885Z,97867.72
2022-12-25T05:07:18.389Z,97850.91
2022-12-25T05:09:46.680Z,97864.13
2022-12-25T05:12:15.373Z,97848.25
2022-12-25T05:14:44.973Z,97856.19
2022-12-25T05:17:13.290Z,97859.50
2022-12-25T05:19:41.569Z,97855.91
2022-12-25T05:22:09.873Z,97856.59
2022-12-25T05:24:38.072Z,97859.25
2022-12-25T05:27:06.316Z,97869.81
2022-12-25T05:29:34.572Z,97875.13
2022-12-25T05:32:04.317Z,97868.88
2022-12-25T05:34:32.672Z,97860.09
2022-12-25T05:37:00.931Z,97867.91
2022-12-25T05:39:29.214Z,97856.47
2022-12-25T05:41:57.459Z,97859.13
2022-12-25T05:44:25.863Z,97858.31
2022-12-25T05:46:54.144Z,97858.31
2022-12-25T05:49:23.887Z,97859.38
2022-12-25T05:51:52.073Z,97860.09
2022-12-25T05:54:20.303Z,97854.81
2022-12-25T05:56:48.573Z,97855.66
2022-12-25T05:59:16.865Z,97853.97
2022-12-25T06:01:45.241Z,97851.31
2022-12-25T06:04:13.617Z,97854.94
2022-12-25T06:06:43.319Z,97851.31
2022-12-25T06:09:14.225Z,97846.16
2022-12-25T06:11:43.125Z,97848.00
2022-12-25T06:14:14.219Z,97839.06
2022-12-25T06:16:42.677Z,97851.31
2022-12-25T06:19:10.971Z,97858.31
2022-12-25T06:21:39.423Z,97861.75
2022-12-25T06:24:09.353Z,97856.47
2022-12-25T06:26:37.692Z,97865.25
2022-12-25T06:29:06.036Z,97862.47
2022-12-25T06:31:34.306Z,97862.47
2022-12-25T06:34:02.590Z,97862.47
2022-12-25T06:36:30.832Z,97871.13
2022-12-25T06:39:02.418Z,97866.91
2022-12-25T06:41:32.638Z,97869.56
2022-12-25T06:44:02.564Z,97866.91
2022-12-25T06:46:32.112Z,97874.84
2022-12-25T06:49:01.180Z,97875.84
2022-12-25T06:51:31.793Z,97868.03
2022-12-25T06:54:03.706Z,97877.63
2022-12-25T06:56:35.044Z,97872.34
2022-12-25T06:59:05.782Z,97875.84
2022-12-25T07:01:43.040Z,97868.75
2022-12-25T07:04:18.624Z,97870.53
2022-12-25T07:06:46.896Z,97870.53
2022-12-25T07:09:15.099Z,97885.44
2022-12-25T07:11:44.724Z,97883.63
2022-12-25T07:14:23.731Z,97885.44
2022-12-25T07:16:52.723Z,97884.63
2022-12-25T07:19:20.949Z,97894.09
2022-12-25T07:21:49.214Z,97887.00
2022-12-25T07:24:21.152Z,97881.72
2022-12-25T07:26:51.902Z,97876.41
2022-12-25T07:29:20.501Z,97878.06
2022-12-25T07:31:48.876Z,97885.16
2022-12-25T07:34:19.182Z,97887.81
2022-12-25T07:36:47.556Z,97884.22
2022-12-25T07:39:16.346Z,97887.81
2022-12-25T07:41:44.687Z,97889.50
2022-12-25T07:44:14.396Z,97900.91
2022-12-25T07:46:42.732Z,97885.88
2022-12-25T07:49:11.150Z,97885.88
2022-12-25T07:51:39.432Z,97891.16
2022-12-25T07:54:08.071Z,97896.31
2022-12-25T07:56:36.448Z,97892.03
2022-12-25T07:59:04.705Z,97887.69
2022-12-25T08:01:34.568Z,97889.50
2022-12-25T08:04:03.930Z,97874.44
2022-12-25T08:06:36.198Z,97882.25
2022-12-25T08:09:08.315Z,97876.03
2022-12-25T08:11:37.307Z,97877.53
2022-12-25T08:14:07.972Z,97890.63
2022-12-25T08:16:39.936Z,97886.19
2022-12-25T08:19:08.350Z,97884.22
2022-12-25T08:21:36.595Z,97883.13
2022-12-25T08:24:05.674Z,97882.19
2022-12-25T08:26:33.978Z,97895.13
2022-12-25T08:29:02.285Z,97891.38
2022-12-25T08:31:33.424Z,97885.94
2022-12-25T08:34:04.982Z,97884.97
2022-12-25T08:36:33.325Z,97880.38
2022-12-25T08:39:03.378Z,97888.19
2022-12-25T08:41:32.027Z,97897.66
2022-12-25T08:44:00.331Z,97885.72
2022-12-25T08:46:28.757Z,97889.63
2022-12-25T08:48:57.447Z,97876.84
2022-12-25T08:51:27.775Z,97877.97
2022-12-25T08:54:01.139Z,97881.03
2022-12-25T08:56:29.787Z,97880.59
2022-12-25T08:58:58.141Z,97876.59
2022-12-25T09:01:26.503Z,97884.00
2022-12-25T09:03:54.850Z,97887.88
2022-12-25T09:06:23.101Z,97883.03
2022-12-25T09:08:52.755Z,97877.19
2022-12-25T09:11:22.419Z,97866.03
2022-12-25T09:13:51.081Z,97857.56
2022-12-25T09:16:22.452Z,97853.50
2022-12-25T09:18:51.264Z,97851.38
2022-12-25T09:21:20.351Z,97853.63
2022-12-25T09:23:48.969Z,97849.72
2022-12-25T09:26:20.441Z,97838.72
2022-12-25T09:28:52.288Z,97830.34
2022-12-25T09:31:22.019Z,97826.28
2022-12-25T09:33:51.080Z,97822.34
2022-12-25T09:36:21.367Z,97822.75
2022-12-25T09:38:49.717Z,97825.00
2022-12-25T09:41:27.807Z,97827.06
2022-12-25T09:44:02.513Z,97834.16
2022-12-25T09:46:40.489Z,97840.41
2022-12-25T09:49:19.272Z,97832.00
2022-12-25T09:51:53.278Z,97826.75
2022-12-25T09:54:27.583Z,97836.56
2022-12-25T09:56:57.154Z,97831.50
2022-12-25T09:59:27.798Z,97835.44
2022-12-25T10:02:20.603Z,97837.19
2022-12-25T10:05:09.137Z,97837.28
2022-12-25T10:07:48.752Z,97842.00
2022-12-25T10:10:34.242Z,97834.13
2022-12-25T10:13:17.129Z,97837.00
2022-12-25T10:15:55.366Z,97836.53
2022-12-25T10:18:50.590Z,97829.41
2022-12-25T10:21:20.594Z,97823.63
2022-12-25T10:23:53.981Z,97824.38
2022-12-25T10:26:25.426Z,97823.63
2022-12-25T10:29:00.103Z,97812.22
2022-12-25T10:31:31.791Z,97803.78
2022-12-25T10:34:00.365Z,97804.16
2022-12-25T10:36:30.708Z,97804.53
2022-12-25T10:38:59.521Z,97808.38
2022-12-25T10:41:50.726Z,97796.00
2022-12-25T10:44:24.493Z,97792.56
2022-12-25T10:46:56.201Z,97790.63
2022-12-25T10:49:27.046Z,97788.19
2022-12-25T10:51:55.390Z,97783.09
2022-12-25T10:54:26.834Z,97780.53
2022-12-25T10:56:57.615Z,97774.41
2022-12-25T10:59:29.342Z,97763.28
2022-12-25T11:02:06.216Z,97752.84
2022-12-25T11:04:37.007Z,97744.88
2022-12-25T11:07:09.311Z,97738.03
2022-12-25T11:09:37.633Z,97737.22
2022-12-25T11:12:07.215Z,97724.88
2022-12-25T11:14:36.853Z,97730.06
2022-12-25T11:17:11.659Z,97725.53
2022-12-25T11:19:39.924Z,97725.88
2022-12-25T11:22:19.791Z,97725.72
2022-12-25T11:24:48.031Z,97721.41
2022-12-25T11:27:26.793Z,97717.56
2022-12-25T11:30:01.189Z,97716.06
2022-12-25T11:32:33.063Z,97716.22
2022-12-25T11:35:04.347Z,97714.72
2022-12-25T11:37:39.032Z,97704.88
2022-12-25T11:40:15.111Z,97696.25
2022-12-25T11:42:48.604Z,97698.41
2022-12-25T11:45:22.047Z,97686.59
2022-12-25T11:47:53.578Z,97691.56
2022-12-25T11:50:28.924Z,97687.59
2022-12-25T11:52:58.520Z,97686.59
2022-12-25T11:55:37.394Z,97678.25
2022-12-25T11:58:14.975Z,97683.41
2022-12-25T12:00:47.811Z,97684.19
2022-12-25T12:03:22.134Z,97680.53
2022-12-25T12:05:55.648Z,97680.03
2022-12-25T12:08:23.990Z,97686.03
2022-12-25T12:11:16.767Z,97676.69
2022-12-25T12:14:06.858Z,97668.22
2022-12-25T12:16:37.559Z,97681.16
2022-12-25T12:19:14.243Z,97662.19
2022-12-25T12:21:44.186Z,97667.34
2022-12-25T12:24:18.084Z,97666.69
2022-12-25T12:26:48.624Z,97664.19
2022-12-25T12:29:28.328Z,97663.50
2022-12-25T12:32:02.361Z,97661.84
2022-12-25T12:34:34.802Z,97652.50
2022-12-25T12:37:06.673Z,97659.53
2022-12-25T12:39:39.445Z,97660.66
2022-12-25T12:42:15.608Z,97658.84
2022-12-25T12:44:44.302Z,97659.84
2022-12-25T12:47:38.382Z,97660.16
2022-12-25T12:50:09.085Z,97659.00
2022-12-25T12:52:41.017Z,97654.16
2022-12-25T12:55:13.128Z,97655.16
2022-12-25T12:57:42.883Z,97646.50
2022-12-25T13:00:19.739Z,97647.84
2022-12-25T13:03:15.309Z,97633.53
2022-12-25T13:05:48.266Z,97638.53
2022-12-25T13:08:33.273Z,97632.69
2022-12-25T13:11:19.712Z,97623.03
2022-12-25T13:13:51.077Z,97616.03
2022-12-25T13:16:27.796Z,97608.91
2022-12-25T13:18:58.511Z,97610.56
2022-12-25T13:21:29.740Z,97622.88
2022-12-25T13:24:00.345Z,97617.88
2022-12-25T13:26:29.961Z,97612.41
2022-12-25T13:28:58.623Z,97616.88
2022-12-25T13:31:29.660Z,97617.88
2022-12-25T13:34:02.712Z,97610.88
2022-12-25T13:36:37.890Z,97610.06
2022-12-25T13:39:10.317Z,97612.88
2022-12-25T13:42:01.569Z,97621.69
2022-12-25T13:44:37.943Z,97624.50
2022-12-25T13:47:22.986Z,97614.69
2022-12-25T13:49:55.303Z,97621.84
2022-12-25T13:52:32.868Z,97618.38
2022-12-25T13:55:04.483Z,97621.03
2022-12-25T13:57:38.359Z,97620.19
2022-12-25T14:00:19.138Z,97619.34
2022-12-25T14:02:48.252Z,97615.88
2022-12-25T14:05:28.930Z,97604.53
2022-12-25T14:08:00.476Z,97595.56
2022-12-25T14:10:31.366Z,97580.59
2022-12-25T14:13:05.108Z,97585.25
2022-12-25T14:15:36.374Z,97582.59
2022-12-25T14:18:04.918Z,97588.06
2022-12-25T14:20:39.131Z,97591.91
2022-12-25T14:23:08.721Z,97585.09
2022-12-25T14:25:43.036Z,97599.50
2022-12-25T14:28:21.449Z,97602.50
2022-12-25T14:30:49.960Z,97602.50
2022-12-25T14:33:22.475Z,97610.47
2022-12-25T14:35:53.525Z,97609.66
2022-12-25T14:38:27.790Z,97615.78
2022-12-25T14:41:03.580Z,97608.66
2022-12-25T14:43:34.519Z,97599.03
2022-12-25T14:46:06.213Z,97594.03
2022-12-25T14:48:34.803Z,97601.00
2022-12-25T14:51:08.564Z,97597.66
2022-12-25T14:53:40.978Z,97600.47
2022-12-25T14:56:10.619Z,97591.00
2022-12-25T14:58:44.927Z,97608.13
2022-12-25T15:01:23.116Z,97612.13
2022-12-25T15:03:51.556Z,97611.56
2022-12-25T15:06:24.785Z,97620.00
2022-12-25T15:09:01.812Z,97618.84
2022-12-25T15:11:30.267Z,97605.00
2022-12-25T15:13:59.230Z,97601.19
2022-12-25T15:16:31.692Z,97604.16
2022-12-25T15:19:01.565Z,97615.25
2022-12-25T15:21:35.293Z,97620.22
2022-12-25T15:24:03.819Z,97611.84
2022-12-25T15:26:33.651Z,97608.88
2022-12-25T15:29:02.064Z,97611.16
2022-12-25T15:31:33.211Z,97615.44
2022-12-25T15:34:04.956Z,97626.69
2022-12-25T15:36:35.042Z,97619.34
2022-12-25T15:39:03.355Z,97620.66
2022-12-25T15:41:53.106Z,97614.94
2022-12-25T15:44:21.585Z,97620.03
2022-12-25T15:46:50.054Z,97610.56
2022-12-25T15:49:18.966Z,97603.22
2022-12-25T15:51:48.771Z,97603.84
2022-12-25T15:54:17.150Z,97594.69
2022-12-25T15:56:49.394Z,97589.84
2022-12-25T15:59:19.722Z,97572.56
2022-12-25T16:01:52.039Z,97574.78
2022-12-25T16:04:20.935Z,97573.44
2022-12-25T16:06:51.909Z,97571.09
2022-12-25T16:09:21.638Z,97570.72
2022-12-25T16:11:50.904Z,97576.47
2022-12-25T16:14:19.567Z,97576.13
2022-12-25T16:16:47.915Z,97572.94
2022-12-25T16:19:16.193Z,97573.22
2022-12-25T16:21:48.090Z,97571.88
2022-12-25T16:24:17.751Z,97575.00
2022-12-25T16:26:46.016Z,97581.25
2022-12-25T16:29:14.306Z,97587.84
2022-12-25T16:31:42.806Z,97582.00
2022-12-25T16:34:11.667Z,97585.66
2022-12-25T16:36:40.172Z,97599.22
2022-12-25T16:39:08.574Z,97607.47
2022-12-25T16:41:38.162Z,97595.50
2022-12-25T16:44:09.487Z,97596.63
2022-12-25T16:46:38.613Z,97590.81
2022-12-25T16:49:07.334Z,97593.75
2022-12-25T16:51:35.615Z,97596.69
2022-12-25T16:54:03.883Z,97603.94
2022-12-25T16:56:32.450Z,97603.44
2022-12-25T16:59:02.162Z,97601.22
2022-12-25T17:01:30.648Z,97599.84
2022-12-25T17:04:02.306Z,97608.09
2022-12-25T17:06:30.810Z,97601.41
2022-12-25T17:09:02.242Z,97603.38
2022-12-25T17:11:31.113Z,97600.19
2022-12-25T17:14:03.576Z,97589.91
2022-12-25T17:16:34.924Z,97591.00
2022-12-25T17:19:07.988Z,97585.19
2022-12-25T17:21:38.174Z,97581.13
2022-12-25T17:24:07.476Z,97576.97
2022-12-25T17:26:35.807Z,97567.66
2022-12-25T17:29:05.522Z,97560.00
2022-12-25T17:31:34.771Z,97562.66
2022-12-25T17:34:03.559Z,97559.31
2022-12-25T17:36:32.473Z,97553.22
2022-12-25T17:39:01.748Z,97556.81
2022-12-25T17:41:30.224Z,97572.72
2022-12-25T17:43:58.525Z,97585.25
2022-12-25T17:46:30.765Z,97596.94
2022-12-25T17:49:01.621Z,97602.41
2022-12-25T17:51:31.662Z,97595.59
2022-12-25T17:54:03.218Z,97592.22
2022-12-25T17:56:32.755Z,97583.06
2022-12-25T17:59:06.732Z,97583.22
2022-12-25T18:01:39.908Z,97580.16
2022-12-25T18:04:08.529Z,97572.63
2022-12-25T18:06:37.879Z,97578.06
2022-12-25T18:09:07.342Z,97563.31
2022-12-25T18:11:36.976Z,97566.41
2022-12-25T18:14:07.427Z,97572.84
2022-12-25T18:16:40.307Z,97571.31
2022-12-25T18:19:09.755Z,97580.38
2022-12-25T18:21:38.382Z,97577.19
2022-12-25T18:24:08.534Z,97577.63
2022-12-25T18:26:37.138Z,97561.19
2022-12-25T18:29:07.001Z,97562.44
2022-12-25T18:31:37.213Z,97560.09
2022-12-25T18:34:05.522Z,97557.72
2022-12-25T18:36:33.994Z,97557.03
2022-12-25T18:39:02.229Z,97560.09
2022-12-25T18:41:30.740Z,97563.03
2022-12-25T18:44:01.644Z,97559.97
2022-12-25T18:46:29.966Z,97582.41
2022-12-25T18:48:59.653Z,97556.38
2022-12-25T18:51:36.398Z,97585.75
2022-12-25T18:54:05.518Z,97568.78
2022-12-25T18:56:34.125Z,97570.03
2022-12-25T18:59:02.648Z,97579.34
2022-12-25T19:01:31.120Z,97591.03
2022-12-25T19:04:05.126Z,97569.31
2022-12-25T19:06:34.214Z,97572.38
2022-12-25T19:09:08.706Z,97603.44
2022-12-25T19:11:42.062Z,97599.38
2022-12-25T19:14:14.092Z,97592.69
2022-12-25T19:16:42.435Z,97594.63
2022-12-25T19:19:12.148Z,97604.53
2022-12-25T19:21:40.430Z,97596.88
2022-12-25T19:24:08.921Z,97583.91
2022-12-25T19:26:37.725Z,97580.69
2022-12-25T19:29:06.092Z,97574.88
2022-12-25T19:31:34.739Z,97569.00
2022-12-25T19:34:03.064Z,97570.94
2022-12-25T19:36:32.678Z,97569.41
2022-12-25T19:39:00.944Z,97571.63
2022-12-25T19:41:29.307Z,97581.38
2022-12-25T19:43:57.552Z,97573.88
2022-12-25T19:46:28.742Z,97568.00
2022-12-25T19:48:59.068Z,97548.94
2022-12-25T19:51:29.731Z,97559.78
2022-12-25T19:53:59.418Z,97553.81
2022-12-25T19:56:29.591Z,97564.66
2022-12-25T19:58:58.724Z,97564.91
2022-12-25T20:01:29.126Z,97584.53
2022-12-25T20:03:57.751Z,97580.47
2022-12-25T20:06:29.840Z,97583.38
2022-12-25T20:09:01.716Z,97583.63
2022-12-25T20:11:31.877Z,97583.91
2022-12-25T20:14:00.271Z,97587.66
2022-12-25T20:16:28.714Z,97597.63
2022-12-25T20:18:58.808Z,97601.38
2022-12-25T20:21:27.710Z,97600.00
2022-12-25T20:23:57.897Z,97588.84
2022-12-25T20:26:29.189Z,97595.25
2022-12-25T20:28:57.735Z,97589.13
2022-12-25T20:31:29.839Z,97588.28
2022-12-25T20:34:01.966Z,97611.22
2022-12-25T20:36:36.412Z,97593.00
2022-12-25T20:39:10.086Z,97580.88
2022-12-25T20:41:39.639Z,97582.00
2022-12-25T20:44:10.086Z,97584.75
2022-12-25T20:46:38.538Z,97577.97
2022-12-25T20:49:06.846Z,97575.31
2022-12-25T20:51:35.440Z,97574.59
2022-12-25T20:54:09.422Z,97584.34
2022-12-25T20:56:38.668Z,97584.47
2022-12-25T20:59:06.979Z,97574.88
2022-12-25T21:01:35.351Z,97573.22
2022-12-25T21:04:03.791Z,97579.47
2022-12-25T21:06:32.080Z,97575.25
2022-12-25T21:09:00.802Z,97582.50
2022-12-25T21:11:31.341Z,97591.22
2022-12-25T21:13:59.851Z,97580.00
2022-12-25T21:16:28.691Z,97585.25
2022-12-25T21:18:56.974Z,97590.66
2022-12-25T21:21:25.826Z,97594.25
2022-12-25T21:23:57.679Z,97591.63
2022-12-25T21:26:31.361Z,97589.97
2022-12-25T21:29:03.181Z,97595.22
2022-12-25T21:31:54.258Z,97596.09
2022-12-25T21:34:21.551Z,97592.59
2022-12-25T21:36:50.125Z,97596.22
2022-12-25T21:39:18.691Z,97598.00
2022-12-25T21:41:48.278Z,97599.91
2022-12-25T21:44:16.554Z,97608.69
2022-12-25T21:46:45.012Z,97614.09
2022-12-25T21:49:33.269Z,97625.63
2022-12-25T21:52:09.333Z,97631.16
2022-12-25T21:54:38.297Z,97627.66
2022-12-25T21:57:08.014Z,97623.50
2022-12-25T21:59:36.302Z,97632.34
2022-12-25T22:02:11.212Z,97646.53
2022-12-25T22:04:40.130Z,97651.94
2022-12-25T22:07:19.411Z,97659.00
2022-12-25T22:09:49.018Z,97653.84
2022-12-25T22:12:38.288Z,97658.44
2022-12-25T22:15:10.001Z,97668.38
2022-12-25T22:17:58.144Z,97670.19
2022-12-25T22:20:30.125Z,97670.31
2022-12-25T22:22:58.684Z,97671.41
2022-12-25T22:25:27.292Z,97676.56
2022-12-25T22:27:57.292Z,97682.81
2022-12-25T22:30:28.596Z,97682.09
2022-12-25T22:32:57.503Z,97679.56
2022-12-25T22:35:35.382Z,97679.56
2022-12-25T22:38:03.616Z,97683.31
2022-12-25T22:40:32.236Z,97682.59
2022-12-25T22:43:01.846Z,97677.44
2022-12-25T22:45:30.132Z,97686.19
2022-12-25T22:47:58.391Z,97687.31
2022-12-25T22:50:26.663Z,97691.84
2022-12-25T22:52:54.969Z,97687.56
2022-12-25T22:55:23.210Z,97690.19
2022-12-25T22:57:52.168Z,97698.22
2022-12-25T23:00:21.906Z,97696.41
2022-12-25T23:02:50.377Z,97689.59
2022-12-25T23:05:19.043Z,97680.00
2022-12-25T23:07:47.364Z,97688.97
2022-12-25T23:10:15.592Z,97688.28
2022-12-25T23:13:01.062Z,97692.81
2022-12-25T23:15:31.482Z,97695.72
2022-12-25T23:18:17.242Z,97687.06
2022-12-25T23:21:03.126Z,97687.19
2022-12-25T23:23:48.814Z,97696.94
2022-12-25T23:26:19.902Z,97687.44
2022-12-25T23:29:10.978Z,97690.22
2022-12-25T23:31:42.799Z,97678.97
2022-12-25T23:34:11.817Z,97685.19
2022-12-25T23:36:40.079Z,97689.63
2022-12-25T23:39:10.413Z,97687.13
2022-12-25T23:41:39.977Z,97686.28
2022-12-25T23:44:08.974Z,97701.25
2022-12-25T23:46:38.532Z,97690.69
2022-12-25T23:49:09.539Z,97694.31
2022-12-25T23:51:38.806Z,97698.03
2022-12-25T23:54:07.735Z,97700.81
2022-12-25T23:56:36.503Z,97698.16
2022-12-25T23:59:05.567Z,97689.53
